Time;durP1;ratioP1;P1;durP2;ratioP2;P2;SDS_P1;SDS_P2;PMS_P1;PMS_P2;Temp;Humidity;BMP_temperature;BMP_pressure;BME280_temperature;BME280_humidity;BME280_pressure;Samples;Min_cycle;Max_cycle;Signal;HPM_P1;HPM_P2
2022/04/19 00:01:16;;;;;;;1.80;1.70;;;7.10;98.80;;;;;;5035127;28;20767;-69
2022/04/19 00:03:41;;;;;;;2.83;2.28;;;7.00;98.90;;;;;;5035013;28;20194;-71
2022/04/19 00:06:07;;;;;;;3.00;2.30;;;7.00;99.20;;;;;;5034817;28;20560;-72
2022/04/19 00:08:34;;;;;;;2.10;2.00;;;6.90;99.50;;;;;;5035111;28;20310;-73
2022/04/19 00:11:01;;;;;;;2.60;2.42;;;6.80;99.90;;;;;;5035081;28;20166;-72
2022/04/19 00:13:30;;;;;;;3.33;2.30;;;6.70;99.90;;;;;;5034577;28;20199;-72
2022/04/19 00:15:56;;;;;;;2.75;1.55;;;6.60;99.90;;;;;;5034817;28;20521;-71
2022/04/19 00:18:23;;;;;;;2.65;2.45;;;6.60;99.90;;;;;;5034812;28;20190;-69
2022/04/19 00:20:49;;;;;;;3.38;2.10;;;6.50;99.90;;;;;;5034355;28;20563;-72
2022/04/19 00:23:15;;;;;;;1.92;1.83;;;6.40;99.90;;;;;;5034053;28;20260;-71
2022/04/19 00:25:43;;;;;;;2.80;1.92;;;6.40;99.90;;;;;;5034547;28;20190;-72
2022/04/19 00:28:10;;;;;;;1.70;1.60;;;6.40;99.90;;;;;;5034570;28;20557;-70
2022/04/19 00:30:36;;;;;;;2.25;2.05;;;6.30;99.90;;;;;;5034531;28;20183;-72
2022/04/19 00:33:02;;;;;;;1.97;1.87;;;6.30;99.90;;;;;;5034335;28;20653;-69
2022/04/19 00:35:28;;;;;;;1.52;1.42;;;6.30;99.90;;;;;;5033992;28;20209;-70
2022/04/19 00:37:54;;;;;;;2.27;2.17;;;6.20;99.90;;;;;;5034538;28;20166;-69
2022/04/19 00:40:20;;;;;;;2.30;2.10;;;6.20;99.90;;;;;;5034511;28;20656;-71
2022/04/19 00:42:47;;;;;;;2.30;2.10;;;6.10;99.90;;;;;;5034614;28;20264;-72
2022/04/19 00:45:13;;;;;;;2.97;2.17;;;6.10;99.90;;;;;;5033925;28;20460;-71
2022/04/19 00:47:39;;;;;;;1.63;1.52;;;6.00;99.90;;;;;;5034547;28;20176;-72
2022/04/19 00:50:06;;;;;;;2.22;2.03;;;6.10;99.90;;;;;;5033874;28;20166;-70
2022/04/19 00:52:33;;;;;;;3.40;2.00;;;6.00;99.90;;;;;;5034108;28;20212;-72
2022/04/19 00:55:01;;;;;;;1.95;1.75;;;6.00;99.90;;;;;;5033589;28;20268;-73
2022/04/19 00:57:28;;;;;;;2.30;2.00;;;6.00;99.90;;;;;;5034065;28;20589;-70
2022/04/19 00:59:55;;;;;;;1.83;1.55;;;6.00;99.90;;;;;;5033562;28;20261;-71
2022/04/19 01:02:21;;;;;;;3.00;2.20;;;5.90;99.90;;;;;;5034371;28;20162;-72
2022/04/19 01:04:49;;;;;;;2.53;2.33;;;5.90;99.90;;;;;;5033280;28;20190;-71
2022/04/19 01:07:19;;;;;;;1.80;1.70;;;5.90;99.90;;;;;;5034105;28;20162;-70
2022/04/19 01:09:46;;;;;;;1.92;1.83;;;5.80;99.90;;;;;;5033897;28;20171;-69
2022/04/19 01:15:02;;;;;;;4.07;2.70;;;5.70;99.90;;;;;;5033747;28;20217;-72
2022/04/19 01:17:27;;;;;;;2.20;2.10;;;5.70;99.90;;;;;;5033913;28;20258;-70
2022/04/19 01:19:54;;;;;;;1.97;1.87;;;5.70;99.90;;;;;;5033507;28;20257;-71
2022/04/19 01:22:20;;;;;;;1.92;1.83;;;5.70;99.90;;;;;;5033540;28;20170;-70
2022/04/19 01:24:45;;;;;;;1.87;1.70;;;5.70;99.90;;;;;;5033274;28;20220;-69
2022/04/19 01:27:13;;;;;;;1.90;1.80;;;5.70;99.90;;;;;;5033715;28;20168;-69
2022/04/19 01:29:39;;;;;;;1.88;1.60;;;5.70;99.90;;;;;;5033659;28;20168;-72
2022/04/19 01:32:07;;;;;;;2.08;1.90;;;5.70;99.90;;;;;;5033778;28;20583;-71
2022/04/19 01:34:33;;;;;;;2.38;2.28;;;5.60;99.90;;;;;;5032838;28;20181;-70
2022/04/19 01:36:58;;;;;;;2.73;2.17;;;5.60;99.90;;;;;;5033177;28;20637;-69
2022/04/19 01:42:09;;;;;;;2.05;1.95;;;5.60;99.90;;;;;;5033636;28;20293;-69
2022/04/19 01:44:36;;;;;;;2.90;2.65;;;5.40;99.90;;;;;;5032868;28;20168;-70
2022/04/19 01:47:04;;;;;;;2.05;1.80;;;5.40;99.90;;;;;;5033503;28;20167;-70
2022/04/19 01:49:30;;;;;;;2.20;1.88;;;5.40;99.90;;;;;;5033193;28;20165;-71
2022/04/19 01:51:55;;;;;;;2.23;1.90;;;5.30;99.90;;;;;;5032018;28;20514;-71
2022/04/19 01:54:21;;;;;;;1.80;1.70;;;5.30;99.90;;;;;;5032752;28;20198;-72
2022/04/19 01:56:48;;;;;;;1.93;1.83;;;5.30;99.90;;;;;;5032841;28;20224;-72
2022/04/19 01:59:13;;;;;;;1.85;1.70;;;5.20;99.90;;;;;;5033388;28;20162;-70
2022/04/19 02:01:39;;;;;;;1.83;1.73;;;5.30;99.90;;;;;;5031939;28;20182;-72
2022/04/19 02:04:05;;;;;;;2.80;1.80;;;5.20;99.90;;;;;;5032900;28;20667;-72
2022/04/19 02:06:31;;;;;;;2.97;1.90;;;5.20;99.90;;;;;;5033223;28;20569;-72
2022/04/19 02:08:57;;;;;;;3.47;2.67;;;5.20;99.90;;;;;;5033475;28;20217;-71
2022/04/19 02:11:26;;;;;;;2.17;2.08;;;5.20;99.90;;;;;;5035331;28;20193;-70
2022/04/19 02:13:51;;;;;;;1.70;1.60;;;5.20;99.90;;;;;;5036970;28;20190;-71
2022/04/19 02:16:17;;;;;;;2.00;1.90;;;5.10;99.90;;;;;;5037328;28;20264;-72
2022/04/19 02:18:43;;;;;;;5.68;2.58;;;5.20;99.90;;;;;;5036694;28;20198;-71
2022/04/19 02:21:09;;;;;;;2.17;2.00;;;5.10;99.90;;;;;;5037094;28;20198;-72
2022/04/19 02:23:35;;;;;;;1.90;1.80;;;5.10;99.90;;;;;;5036805;28;20417;-70
2022/04/19 02:26:02;;;;;;;2.65;2.45;;;5.00;99.90;;;;;;5036999;28;20186;-70
2022/04/19 02:28:28;;;;;;;5.05;2.42;;;5.00;99.90;;;;;;5036601;28;20170;-72
2022/04/19 02:30:54;;;;;;;2.33;1.80;;;5.00;99.90;;;;;;5036841;28;20170;-72
2022/04/19 02:33:19;;;;;;;2.47;2.27;;;5.00;99.90;;;;;;5036319;28;20676;-72
2022/04/19 02:35:45;;;;;;;2.80;2.60;;;4.90;99.90;;;;;;5035480;28;20209;-72
2022/04/19 02:38:11;;;;;;;1.53;1.33;;;4.90;99.90;;;;;;5036832;28;20170;-71
2022/04/19 02:40:37;;;;;;;3.20;2.20;;;4.90;99.90;;;;;;5036763;28;20216;-72
2022/04/19 02:43:02;;;;;;;1.77;1.67;;;4.80;99.90;;;;;;5036298;28;20435;-71
2022/04/19 02:45:28;;;;;;;1.73;1.63;;;4.80;99.90;;;;;;5036053;28;20193;-70
2022/04/19 02:48:04;;;;;;;1.80;1.70;;;4.80;99.90;;;;;;5036523;28;20649;-70
2022/04/19 02:50:39;;;;;;;3.97;2.38;;;4.80;99.90;;;;;;5036659;28;20173;-72
2022/04/19 02:53:04;;;;;;;2.40;1.90;;;4.70;99.90;;;;;;5036117;28;20288;-71
2022/04/19 02:55:30;;;;;;;2.23;2.03;;;4.70;99.90;;;;;;5036475;28;20193;-70
2022/04/19 02:57:56;;;;;;;2.13;1.93;;;4.70;99.90;;;;;;5036192;28;20180;-70
2022/04/19 03:00:23;;;;;;;3.47;2.53;;;4.70;99.90;;;;;;5036094;28;20176;-70
2022/04/19 03:02:49;;;;;;;2.08;1.90;;;4.70;99.90;;;;;;5035962;28;20257;-69
2022/04/19 03:05:16;;;;;;;2.45;2.13;;;4.60;99.90;;;;;;5034639;28;20193;-70
2022/04/19 03:07:41;;;;;;;2.78;2.58;;;4.60;99.90;;;;;;5035087;28;20260;-70
2022/04/19 03:10:08;;;;;;;2.43;1.97;;;4.60;99.90;;;;;;5035016;28;20601;-70
2022/04/19 03:12:33;;;;;;;2.47;2.28;;;4.50;99.90;;;;;;5034621;28;20452;-72
2022/04/19 03:15:00;;;;;;;6.03;1.93;;;4.50;99.90;;;;;;5034470;28;20356;-72
2022/04/19 03:17:26;;;;;;;1.90;1.80;;;4.50;99.90;;;;;;5034853;28;20177;-69
2022/04/19 03:19:52;;;;;;;1.95;1.85;;;4.40;99.90;;;;;;5034814;28;20174;-70
2022/04/19 03:22:18;;;;;;;2.50;1.93;;;4.40;99.90;;;;;;5034508;28;20498;-71
2022/04/19 03:27:42;;;;;;;1.77;1.67;;;4.40;99.90;;;;;;5034394;28;20176;-69
2022/04/19 03:30:10;;;;;;;2.22;2.03;;;4.40;99.90;;;;;;5034789;28;20197;-70
2022/04/19 03:32:38;;;;;;;1.83;1.73;;;4.40;99.90;;;;;;5034747;28;20216;-70
2022/04/19 03:35:04;;;;;;;3.08;2.15;;;4.30;99.90;;;;;;5034262;28;20185;-71
2022/04/19 03:37:30;;;;;;;2.43;2.23;;;4.40;99.90;;;;;;5034398;28;20216;-71
2022/04/19 03:39:56;;;;;;;2.40;2.20;;;4.30;99.90;;;;;;5034378;28;20466;-71
2022/04/19 03:42:24;;;;;;;2.60;2.50;;;4.30;99.90;;;;;;5034189;28;20580;-70
2022/04/19 03:44:50;;;;;;;2.25;1.90;;;4.30;99.90;;;;;;5034027;28;20194;-71
2022/04/19 03:47:16;;;;;;;1.50;1.40;;;4.30;99.90;;;;;;5034314;28;20167;-71
2022/04/19 03:49:42;;;;;;;2.83;1.83;;;4.20;99.90;;;;;;5034117;28;20981;-69
2022/04/19 03:52:08;;;;;;;1.90;1.80;;;4.20;99.90;;;;;;5032489;28;20427;-70
2022/04/19 03:54:35;;;;;;;2.22;1.83;;;4.10;99.90;;;;;;5033826;28;20533;-71
2022/04/19 03:57:07;;;;;;;2.40;1.77;;;4.10;99.90;;;;;;5034201;28;20223;-72
2022/04/19 03:59:33;;;;;;;2.38;2.10;;;4.00;99.90;;;;;;5033840;28;20166;-70
2022/04/19 04:01:59;;;;;;;2.40;2.08;;;4.10;99.90;;;;;;5034254;28;20170;-71
2022/04/19 04:04:30;;;;;;;2.43;1.77;;;4.10;99.90;;;;;;5028374;28;143712;-70
2022/04/19 04:07:00;;;;;;;2.35;2.15;;;4.10;99.90;;;;;;5034891;28;20228;-72
2022/04/19 04:09:32;;;;;;;2.20;1.95;;;4.10;99.90;;;;;;5035414;28;20182;-71
2022/04/19 04:12:02;;;;;;;2.35;2.03;;;4.10;99.90;;;;;;5033681;28;20170;-70
2022/04/19 04:14:28;;;;;;;2.55;2.35;;;4.10;99.90;;;;;;5034121;28;20194;-70
2022/04/19 04:16:54;;;;;;;2.85;2.60;;;4.10;99.90;;;;;;5034874;28;20260;-72
2022/04/19 04:19:20;;;;;;;2.63;2.43;;;4.10;99.90;;;;;;5035179;28;20166;-70
2022/04/19 04:21:45;;;;;;;1.40;1.30;;;4.10;99.90;;;;;;5034815;28;20245;-72
2022/04/19 04:24:11;;;;;;;2.07;1.87;;;4.10;99.90;;;;;;5034368;28;20177;-70
2022/04/19 04:26:37;;;;;;;3.47;2.43;;;4.10;99.90;;;;;;5034623;28;20285;-70
2022/04/19 04:29:02;;;;;;;2.00;1.90;;;4.10;99.90;;;;;;5034411;28;20215;-71
2022/04/19 04:31:28;;;;;;;2.17;2.07;;;4.10;99.90;;;;;;5034726;28;20213;-70
2022/04/19 04:33:53;;;;;;;3.27;2.70;;;4.20;99.90;;;;;;5033311;28;20197;-71
2022/04/19 04:36:19;;;;;;;2.17;1.97;;;4.10;99.90;;;;;;5034438;28;20711;-69
2022/04/19 04:38:45;;;;;;;2.20;1.93;;;4.10;99.90;;;;;;5034380;28;20177;-70
2022/04/19 04:41:11;;;;;;;2.05;1.85;;;4.10;99.90;;;;;;5034500;28;20166;-70
2022/04/19 04:43:38;;;;;;;2.73;2.33;;;4.20;99.90;;;;;;5034104;28;20174;-70
2022/04/19 04:51:32;;;;;;;2.05;1.95;;;4.60;99.90;;;;;;5034469;28;20687;-70
2022/04/19 04:53:58;;;;;;;2.87;2.67;;;4.70;99.90;;;;;;5033673;28;20198;-73
2022/04/19 04:56:23;;;;;;;3.23;2.23;;;4.90;99.90;;;;;;5034190;28;20202;-71
2022/04/19 04:58:49;;;;;;;3.13;2.93;;;5.00;99.90;;;;;;5034155;28;20174;-72
2022/04/19 05:01:15;;;;;;;2.85;2.13;;;5.20;99.90;;;;;;5034013;28;20216;-70
2022/04/19 05:03:41;;;;;;;1.50;1.40;;;5.40;99.90;;;;;;5033500;28;20198;-73
2022/04/19 05:06:06;;;;;;;3.47;2.37;;;5.60;99.90;;;;;;5034119;28;20202;-73
2022/04/19 05:08:32;;;;;;;2.67;2.47;;;5.90;99.90;;;;;;5033953;28;20243;-73
2022/04/19 05:10:58;;;;;;;2.10;2.00;;;6.10;99.90;;;;;;5034009;28;20182;-70
2022/04/19 05:13:23;;;;;;;2.40;2.27;;;6.10;99.90;;;;;;5033357;28;20220;-71
2022/04/19 05:15:49;;;;;;;2.50;2.30;;;6.20;99.90;;;;;;5033946;28;20593;-70
2022/04/19 05:18:15;;;;;;;1.60;1.50;;;6.30;99.90;;;;;;5033603;28;20172;-72
2022/04/19 05:20:42;;;;;;;2.67;2.47;;;6.40;99.90;;;;;;5033955;28;20200;-70
2022/04/19 05:23:07;;;;;;;2.60;2.40;;;6.70;99.90;;;;;;5033430;28;20187;-72
2022/04/19 05:25:33;;;;;;;3.77;2.13;;;6.90;99.90;;;;;;5033851;28;20194;-71
2022/04/19 05:27:59;;;;;;;2.63;2.43;;;7.20;99.90;;;;;;5034103;28;20940;-71
2022/04/19 05:30:25;;;;;;;2.03;1.93;;;7.30;99.90;;;;;;5032635;28;20173;-73
2022/04/19 05:32:50;;;;;;;2.17;2.03;;;7.50;99.90;;;;;;5033677;28;20194;-73
2022/04/19 05:35:16;;;;;;;2.57;2.37;;;7.80;99.90;;;;;;5032271;28;20194;-73
2022/04/19 05:37:41;;;;;;;2.27;2.07;;;8.10;99.90;;;;;;5033822;28;20197;-72
2022/04/19 05:40:08;;;;;;;2.30;2.20;;;8.50;99.90;;;;;;5033688;28;20517;-73
2022/04/19 05:42:34;;;;;;;2.70;2.50;;;8.80;99.90;;;;;;5033037;28;20290;-70
2022/04/19 05:44:59;;;;;;;1.83;1.73;;;9.00;99.20;;;;;;5032703;28;20277;-72
2022/04/19 05:47:25;;;;;;;1.90;1.63;;;9.20;99.00;;;;;;5033093;28;20223;-71
2022/04/19 05:49:51;;;;;;;2.00;1.90;;;9.20;98.20;;;;;;5033298;28;20229;-71
2022/04/19 05:52:17;;;;;;;3.57;2.20;;;9.30;98.20;;;;;;5033247;28;20170;-72
2022/04/19 05:54:42;;;;;;;2.80;2.50;;;9.30;98.30;;;;;;5032660;28;20419;-70
2022/04/19 05:57:10;;;;;;;2.70;2.50;;;9.50;98.00;;;;;;5032877;28;20232;-70
2022/04/19 05:59:36;;;;;;;3.00;2.70;;;9.80;97.60;;;;;;5033032;28;20181;-69
2022/04/19 06:04:52;;;;;;;2.53;2.27;;;11.00;94.80;;;;;;5032682;28;20464;-70
2022/04/19 06:07:22;;;;;;;2.30;2.20;;;11.30;93.30;;;;;;5033002;28;20403;-72
2022/04/19 06:09:48;;;;;;;2.43;2.33;;;11.40;92.50;;;;;;5033042;28;20441;-73
2022/04/19 06:12:14;;;;;;;3.13;2.83;;;11.60;92.40;;;;;;5032711;28;20812;-70
2022/04/19 06:14:39;;;;;;;2.77;2.50;;;11.90;92.00;;;;;;5032482;28;20396;-70
2022/04/19 06:17:05;;;;;;;2.47;2.30;;;12.10;91.30;;;;;;5033314;28;20177;-71
2022/04/19 06:19:31;;;;;;;1.90;1.80;;;12.30;91.20;;;;;;5032994;28;20169;-70
2022/04/19 06:21:57;;;;;;;3.30;3.10;;;12.10;90.10;;;;;;5032730;28;20175;-72
2022/04/19 06:24:24;;;;;;;2.23;2.13;;;11.80;90.00;;;;;;5032564;28;20894;-70
2022/04/19 06:26:50;;;;;;;2.43;2.30;;;11.60;91.00;;;;;;5032069;28;20438;-72
2022/04/19 06:29:16;;;;;;;4.63;2.70;;;11.80;91.30;;;;;;5031427;28;20419;-72
2022/04/19 06:31:41;;;;;;;2.60;2.40;;;12.00;90.30;;;;;;5032622;28;20766;-71
2022/04/19 06:34:07;;;;;;;3.83;3.53;;;12.20;90.00;;;;;;5032309;28;20419;-71
2022/04/19 06:36:33;;;;;;;3.37;3.07;;;12.50;89.90;;;;;;5032571;28;20272;-70
2022/04/19 06:38:59;;;;;;;3.07;2.87;;;12.70;88.10;;;;;;5032591;28;20917;-69
2022/04/19 06:41:25;;;;;;;4.70;2.60;;;13.00;87.90;;;;;;5032459;28;20412;-73
2022/04/19 06:43:50;;;;;;;2.67;2.20;;;13.10;87.40;;;;;;5032263;28;20178;-71
2022/04/19 06:46:17;;;;;;;3.00;2.60;;;13.00;87.20;;;;;;5032666;28;20232;-72
2022/04/19 06:48:43;;;;;;;3.87;2.70;;;13.10;89.00;;;;;;5032537;28;20166;-70
2022/04/19 06:51:09;;;;;;;2.20;2.10;;;13.10;86.40;;;;;;5032629;28;20415;-70
2022/04/19 06:53:36;;;;;;;3.53;3.17;;;13.00;86.20;;;;;;5032320;28;20966;-71
2022/04/19 06:56:04;;;;;;;2.30;2.20;;;13.10;87.10;;;;;;5030833;28;20440;-71
2022/04/19 06:58:30;;;;;;;4.30;3.10;;;13.40;86.90;;;;;;5036183;28;20405;-71
2022/04/19 07:00:56;;;;;;;3.00;2.80;;;13.70;85.50;;;;;;5036129;28;20400;-72
2022/04/19 07:03:24;;;;;;;2.90;2.60;;;13.90;83.90;;;;;;5034332;28;20962;-72
2022/04/19 07:05:50;;;;;;;3.30;3.10;;;14.00;82.40;;;;;;5035928;28;20984;-71
2022/04/19 07:08:15;;;;;;;3.40;2.80;;;14.20;82.90;;;;;;5036232;28;20892;-70
2022/04/19 07:10:41;;;;;;;2.67;2.43;;;14.60;81.10;;;;;;5035891;28;20429;-70
2022/04/19 07:13:07;;;;;;;9.77;3.83;;;15.00;80.50;;;;;;5035549;28;20278;-72
2022/04/19 07:15:33;;;;;;;2.70;2.50;;;15.40;79.70;;;;;;5035761;28;20178;-72
2022/04/19 07:17:59;;;;;;;2.70;2.50;;;15.90;78.60;;;;;;5035909;28;20404;-72
2022/04/19 07:28:37;;;;;;;4.07;3.00;;;18.00;71.30;;;;;;5035353;28;20386;-72
2022/04/19 07:31:04;;;;;;;3.50;3.20;;;18.70;69.70;;;;;;5035170;28;20388;-71
2022/04/19 07:33:37;;;;;;;4.07;3.17;;;19.20;67.50;;;;;;5034970;28;20318;-71
2022/04/19 07:36:04;;;;;;;3.80;3.40;;;19.40;66.90;;;;;;5035197;28;20391;-72
2022/04/19 07:38:30;;;;;;;4.20;3.50;;;19.60;64.70;;;;;;5035272;28;20405;-72
2022/04/19 07:40:56;;;;;;;4.30;3.53;;;19.70;63.20;;;;;;5035088;28;20388;-71
2022/04/19 07:43:22;;;;;;;2.83;2.63;;;19.90;64.60;;;;;;5034510;28;20417;-73
2022/04/19 07:45:47;;;;;;;3.70;3.40;;;20.30;62.90;;;;;;5035022;28;20192;-71
2022/04/19 07:48:13;;;;;;;4.03;3.63;;;20.80;60.80;;;;;;5034960;28;20657;-72
2022/04/19 07:50:39;;;;;;;15.80;5.50;;;21.40;59.40;;;;;;5035042;28;20609;-72
2022/04/19 07:53:05;;;;;;;8.93;3.47;;;21.80;58.40;;;;;;5034241;28;20194;-73
2022/04/19 07:55:31;;;;;;;5.50;3.53;;;22.50;57.70;;;;;;5034931;28;20399;-73
2022/04/19 07:57:56;;;;;;;19.33;5.47;;;23.10;56.50;;;;;;5035019;28;20412;-72
2022/04/19 08:00:27;;;;;;;9.47;4.17;;;23.70;54.50;;;;;;5033130;28;20178;-72
2022/04/19 08:02:53;;;;;;;10.07;4.00;;;24.20;55.30;;;;;;5034344;28;20248;-71
2022/04/19 08:05:19;;;;;;;6.27;3.60;;;24.70;54.30;;;;;;5034132;28;20432;-72
2022/04/19 08:07:44;;;;;;;4.30;3.90;;;25.10;54.10;;;;;;5033303;28;20436;-72
2022/04/19 08:10:10;;;;;;;3.87;3.13;;;25.70;52.50;;;;;;5033876;28;20258;-72
2022/04/19 08:12:36;;;;;;;3.40;2.83;;;25.80;50.80;;;;;;5033091;28;20194;-72
2022/04/19 08:15:01;;;;;;;3.50;3.20;;;25.80;51.10;;;;;;5033612;28;20220;-74
2022/04/19 08:17:28;;;;;;;3.37;3.03;;;25.80;49.40;;;;;;5033153;28;20625;-72
2022/04/19 08:19:56;;;;;;;3.37;3.03;;;26.20;50.10;;;;;;5034299;28;20173;-73
2022/04/19 08:22:23;;;;;;;3.90;3.60;;;26.60;48.60;;;;;;5034291;28;20397;-72
2022/04/19 08:24:48;;;;;;;3.87;3.50;;;26.70;47.90;;;;;;5033747;28;20862;-72
2022/04/19 08:27:17;;;;;;;3.50;3.20;;;25.70;48.50;;;;;;5034322;28;20412;-72
2022/04/19 08:29:43;;;;;;;3.20;3.00;;;25.10;50.70;;;;;;5034035;28;20206;-73
2022/04/19 08:32:09;;;;;;;4.70;3.37;;;25.10;51.30;;;;;;5034217;28;20787;-72
2022/04/19 08:34:35;;;;;;;3.40;3.10;;;25.00;50.50;;;;;;5033764;28;20177;-72
2022/04/19 08:37:02;;;;;;;2.90;2.70;;;25.10;51.60;;;;;;5034146;28;20405;-74
2022/04/19 08:39:28;;;;;;;3.77;3.10;;;25.20;49.70;;;;;;5034151;28;20171;-72
2022/04/19 08:41:54;;;;;;;4.10;3.40;;;25.40;49.30;;;;;;5033974;28;20900;-72
2022/04/19 08:44:19;;;;;;;4.40;3.40;;;25.90;50.00;;;;;;5033339;28;20456;-71
2022/04/19 08:46:46;;;;;;;15.93;5.53;;;26.50;49.20;;;;;;5033694;28;20201;-72
2022/04/19 08:49:12;;;;;;;4.17;3.40;;;26.40;47.70;;;;;;5033601;28;20163;-71
2022/04/19 08:51:40;;;;;;;3.20;2.37;;;26.60;47.60;;;;;;5034002;28;20397;-73
2022/04/19 08:59:37;;;;;;;3.17;2.90;;;28.50;45.60;;;;;;5033759;28;20893;-71
2022/04/19 09:02:05;;;;;;;3.27;2.97;;;28.20;43.70;;;;;;5033455;28;20905;-72
2022/04/19 09:04:31;;;;;;;3.37;3.03;;;27.70;45.30;;;;;;5032847;28;20206;-72
2022/04/19 09:06:58;;;;;;;3.40;3.10;;;27.60;46.50;;;;;;5033167;28;20892;-73
2022/04/19 09:09:30;;;;;;;3.17;2.87;;;27.40;46.30;;;;;;5033192;28;20190;-74
2022/04/19 09:12:16;;;;;;;3.73;3.07;;;27.80;46.50;;;;;;5033424;28;20372;-73
2022/04/19 09:14:56;;;;;;;2.93;2.73;;;28.00;45.50;;;;;;5032186;28;20404;-73
2022/04/19 09:17:40;;;;;;;2.80;2.60;;;28.00;46.70;;;;;;5033257;28;20784;-74
2022/04/19 09:20:18;;;;;;;3.07;2.77;;;28.30;44.90;;;;;;5032802;28;20482;-73
2022/04/19 09:22:48;;;;;;;3.20;3.00;;;28.40;45.20;;;;;;5033323;28;20843;-73
2022/04/19 09:25:16;;;;;;;3.53;3.27;;;28.90;46.90;;;;;;5032938;28;20800;-73
2022/04/19 09:27:43;;;;;;;3.63;3.33;;;29.40;45.60;;;;;;5033158;28;20785;-73
2022/04/19 09:30:16;;;;;;;2.93;2.70;;;29.10;45.30;;;;;;5032839;28;20900;-73
2022/04/19 09:32:42;;;;;;;2.60;2.43;;;28.90;43.20;;;;;;5033061;28;20487;-73
2022/04/19 09:35:07;;;;;;;2.80;2.60;;;28.90;44.00;;;;;;5031556;28;20943;-72
2022/04/19 09:37:34;;;;;;;2.63;2.43;;;29.10;43.80;;;;;;5033107;28;20205;-73
2022/04/19 09:39:59;;;;;;;3.43;2.53;;;29.30;42.60;;;;;;5033610;28;20181;-72
2022/04/19 09:42:26;;;;;;;2.30;2.20;;;29.80;42.80;;;;;;5032569;28;20983;-72
2022/04/19 09:44:52;;;;;;;5.27;2.63;;;30.00;41.00;;;;;;5031195;28;20221;-72
2022/04/19 09:47:17;;;;;;;2.37;2.13;;;29.70;40.20;;;;;;5032406;28;20409;-72
2022/04/19 09:49:51;;;;;;;1.87;1.77;;;29.60;39.40;;;;;;5033121;28;20225;-72
2022/04/19 09:52:23;;;;;;;2.13;1.93;;;29.20;38.60;;;;;;5031751;28;20205;-73
2022/04/19 09:55:08;;;;;;;2.50;2.30;;;29.00;39.80;;;;;;5032424;28;20401;-72
2022/04/19 09:57:38;;;;;;;2.07;1.97;;;29.00;38.00;;;;;;5032911;28;20421;-73
2022/04/19 10:00:13;;;;;;;2.60;2.40;;;29.30;39.30;;;;;;5032969;28;20733;-73
2022/04/19 10:08:20;;;;;;;2.23;2.03;;;28.90;38.70;;;;;;5013335;28;20397;-73
2022/04/19 10:10:50;;;;;;;2.73;2.30;;;28.40;38.80;;;;;;5013118;28;20417;-74
2022/04/19 10:13:23;;;;;;;2.93;1.77;;;28.10;37.30;;;;;;5025158;28;20443;-73
2022/04/19 10:15:49;;;;;;;2.60;2.40;;;27.60;37.40;;;;;;5032644;28;20867;-74
2022/04/19 10:18:15;;;;;;;3.00;2.70;;;27.60;37.60;;;;;;5032537;28;20757;-73
2022/04/19 10:20:46;;;;;;;3.33;3.00;;;27.20;38.40;;;;;;5032806;28;20772;-72
2022/04/19 10:23:13;;;;;;;2.83;2.53;;;26.70;39.40;;;;;;5032529;28;20456;-73
2022/04/19 10:25:41;;;;;;;3.20;2.90;;;26.70;41.50;;;;;;5032544;28;20425;-71
2022/04/19 10:28:08;;;;;;;2.63;2.53;;;26.60;40.30;;;;;;5031750;28;20503;-73
2022/04/19 10:30:38;;;;;;;2.00;1.90;;;26.80;39.80;;;;;;5032641;28;20405;-73
2022/04/19 10:33:39;;;;;;;2.93;2.57;;;27.30;40.60;;;;;;5035551;28;20503;-74
2022/04/19 10:36:29;;;;;;;2.57;2.37;;;28.00;42.20;;;;;;5029030;28;20437;-73
2022/04/19 10:39:22;;;;;;;2.70;2.50;;;28.20;40.50;;;;;;5036380;28;20404;-73
2022/04/19 10:41:58;;;;;;;3.30;2.70;;;27.70;40.50;;;;;;5035282;28;20429;-73
2022/04/19 10:44:26;;;;;;;2.90;2.60;;;27.40;39.20;;;;;;5035690;28;20500;-73
2022/04/19 10:47:12;;;;;;;3.87;2.93;;;27.30;40.80;;;;;;5036084;28;20766;-72
2022/04/19 10:49:47;;;;;;;3.63;2.70;;;27.30;41.90;;;;;;5036255;28;20421;-72
2022/04/19 10:52:38;;;;;;;2.57;2.37;;;27.00;40.50;;;;;;5036063;28;20386;-75
2022/04/19 10:55:24;;;;;;;2.80;2.60;;;26.80;41.70;;;;;;5035600;28;20394;-73
2022/04/19 10:58:17;;;;;;;2.70;2.47;;;26.70;41.50;;;;;;5035647;28;20470;-72
2022/04/19 11:00:49;;;;;;;2.80;2.60;;;26.70;40.90;;;;;;5035853;28;20402;-72
2022/04/19 11:03:17;;;;;;;3.10;2.70;;;26.50;40.30;;;;;;5035121;28;20434;-72
2022/04/19 11:05:54;;;;;;;4.90;2.93;;;26.20;40.00;;;;;;5035579;28;20504;-72
2022/04/19 11:08:25;;;;;;;3.53;2.83;;;25.70;39.90;;;;;;5036130;28;20411;-72
2022/04/19 11:11:23;;;;;;;3.23;2.93;;;24.80;41.60;;;;;;5035786;28;20404;-72
2022/04/19 11:14:23;;;;;;;3.07;2.67;;;24.00;42.70;;;;;;5035653;28;20468;-73
2022/04/19 11:16:51;;;;;;;2.93;2.73;;;23.00;44.80;;;;;;5035640;28;20438;-71
2022/04/19 11:19:19;;;;;;;3.23;2.73;;;22.10;46.40;;;;;;5035824;28;20405;-71
2022/04/19 11:21:56;;;;;;;2.50;2.30;;;21.50;46.40;;;;;;5035648;28;20784;-72
2022/04/19 11:24:59;;;;;;;2.10;2.00;;;21.10;47.40;;;;;;5035311;28;20970;-73
2022/04/19 11:27:54;;;;;;;3.27;2.20;;;20.60;48.00;;;;;;5035202;28;20418;-71
2022/04/19 11:30:24;;;;;;;3.27;2.53;;;20.10;48.00;;;;;;5035189;28;20795;-71
2022/04/19 11:32:52;;;;;;;4.67;3.37;;;20.00;50.30;;;;;;5035654;28;20407;-72
2022/04/19 11:35:18;;;;;;;2.43;2.00;;;19.70;48.80;;;;;;5034858;28;20444;-71
2022/04/19 11:37:45;;;;;;;3.00;2.00;;;19.40;48.80;;;;;;5035201;28;20415;-71
2022/04/19 11:48:48;;;;;;;3.30;1.60;;;18.90;47.80;;;;;;5015754;28;20411;-70
2022/04/19 11:51:16;;;;;;;2.70;2.13;;;18.80;49.50;;;;;;5018777;28;20975;-71
2022/04/19 11:53:43;;;;;;;3.77;2.63;;;18.70;49.40;;;;;;5033108;28;20384;-71
2022/04/19 11:56:08;;;;;;;2.00;1.70;;;18.70;47.80;;;;;;5034950;28;20535;-71
2022/04/19 11:58:38;;;;;;;6.63;2.80;;;18.60;48.60;;;;;;5034950;28;20487;-70
2022/04/19 12:01:06;;;;;;;2.37;2.00;;;18.50;48.20;;;;;;5034831;28;20174;-70
2022/04/19 12:03:36;;;;;;;2.40;2.27;;;18.50;51.00;;;;;;5034076;28;20557;-71
2022/04/19 12:06:14;;;;;;;3.67;2.50;;;18.50;51.60;;;;;;5032891;28;20448;-70
2022/04/19 12:08:49;;;;;;;1.83;1.73;;;18.60;48.30;;;;;;5034976;28;20454;-70
2022/04/19 12:11:18;;;;;;;3.30;3.00;;;18.40;48.40;;;;;;5035184;28;20795;-69
2022/04/19 12:13:48;;;;;;;4.23;2.40;;;18.40;50.20;;;;;;5034382;28;20413;-72
2022/04/19 12:16:37;;;;;;;1.77;1.63;;;18.40;51.10;;;;;;5034658;28;20427;-71
2022/04/19 12:19:07;;;;;;;2.93;1.97;;;18.50;52.50;;;;;;5034676;28;20413;-71
2022/04/19 12:21:39;;;;;;;4.13;2.17;;;18.60;50.50;;;;;;5034341;28;20807;-72
2022/04/19 12:24:06;;;;;;;3.17;2.60;;;18.70;50.80;;;;;;5034095;28;20423;-71
2022/04/19 12:26:32;;;;;;;2.90;2.53;;;18.70;49.80;;;;;;5034111;28;20761;-71
2022/04/19 12:29:13;;;;;;;4.70;2.13;;;18.70;51.60;;;;;;5034344;28;20404;-70
2022/04/19 12:31:41;;;;;;;3.23;2.93;;;18.70;51.00;;;;;;5034405;28;20252;-73
2022/04/19 12:34:09;;;;;;;2.10;1.63;;;18.70;51.90;;;;;;5033965;28;20419;-72
2022/04/19 12:36:48;;;;;;;3.03;2.73;;;18.70;49.70;;;;;;5033877;28;20431;-71
2022/04/19 12:39:21;;;;;;;2.23;2.03;;;18.60;48.80;;;;;;5033956;28;20402;-71
2022/04/19 12:41:49;;;;;;;2.10;1.93;;;18.50;50.40;;;;;;5034411;28;20898;-72
2022/04/19 12:44:18;;;;;;;2.27;1.87;;;18.60;52.50;;;;;;5034128;28;20884;-71
2022/04/19 12:46:49;;;;;;;2.30;1.80;;;18.70;50.80;;;;;;5034436;28;20514;-72
2022/04/19 12:49:26;;;;;;;2.33;2.13;;;18.80;50.50;;;;;;5034177;28;20411;-73
2022/04/19 12:52:08;;;;;;;2.33;2.13;;;18.70;50.50;;;;;;5032998;28;20431;-70
2022/04/19 12:54:36;;;;;;;2.47;2.27;;;18.70;49.70;;;;;;5033216;28;20412;-72
2022/04/19 12:57:09;;;;;;;1.87;1.77;;;18.70;49.50;;;;;;5034028;28;20422;-72
2022/04/19 12:59:35;;;;;;;2.20;1.60;;;18.70;50.20;;;;;;5033976;28;20494;-70
2022/04/19 13:02:01;;;;;;;2.50;2.10;;;18.70;50.80;;;;;;5033833;28;20511;-71
2022/04/19 13:04:27;;;;;;;3.20;2.13;;;18.80;50.70;;;;;;5033080;28;20289;-71
2022/04/19 13:12:24;;;;;;;2.00;1.90;;;18.70;49.40;;;;;;5033837;28;20952;-72
2022/04/19 13:15:04;;;;;;;4.50;2.67;;;18.60;49.00;;;;;;5033052;28;20490;-71
2022/04/19 13:17:39;;;;;;;2.87;2.57;;;18.50;49.20;;;;;;5032421;28;20423;-71
2022/04/19 13:20:06;;;;;;;1.97;1.87;;;18.40;49.40;;;;;;5031948;28;20428;-71
2022/04/19 13:22:33;;;;;;;1.80;1.70;;;18.20;49.80;;;;;;5033181;28;20417;-70
2022/04/19 13:24:59;;;;;;;2.10;1.90;;;18.20;49.70;;;;;;5032732;28;20406;-71
2022/04/19 13:27:32;;;;;;;3.17;2.63;;;18.20;51.20;;;;;;5033292;28;20408;-71
2022/04/19 13:29:58;;;;;;;2.83;2.30;;;18.30;52.10;;;;;;5033574;28;20407;-70
2022/04/19 13:32:24;;;;;;;3.80;3.50;;;18.40;52.80;;;;;;5033272;28;20435;-70
2022/04/19 13:34:50;;;;;;;2.73;2.50;;;18.50;53.20;;;;;;5032460;28;20918;-70
2022/04/19 13:37:16;;;;;;;3.27;2.43;;;18.60;51.70;;;;;;5033298;28;20647;-73
2022/04/19 13:39:42;;;;;;;4.67;2.77;;;18.50;51.00;;;;;;5033038;28;20176;-71
2022/04/19 13:42:08;;;;;;;2.77;2.57;;;18.40;52.50;;;;;;5033028;28;20411;-71
2022/04/19 13:44:33;;;;;;;3.47;2.60;;;18.40;51.60;;;;;;5032748;28;20540;-73
2022/04/19 13:46:59;;;;;;;4.07;2.53;;;18.40;50.90;;;;;;5033379;28;20638;-73